Time;durP1;ratioP1;P1;durP2;ratioP2;P2;SDS_P1;SDS_P2;PMS_P1;PMS_P2;Temp;Humidity;BMP_temperature;BMP_pressure;BME280_temperature;BME280_humidity;BME280_pressure;Samples;Min_cycle;Max_cycle;Signal;HPM_P1;HPM_P2
2021/12/04 00:02:06;;;;;;;2.45;1.10;;;13.10;99.90;;;;;;5033102;28;20037;-74
2021/12/04 00:04:38;;;;;;;3.85;1.60;;;13.10;99.90;;;;;;5032710;28;20033;-73
2021/12/04 00:07:06;;;;;;;2.22;1.23;;;13.10;99.90;;;;;;5033053;28;20029;-74
2021/12/04 00:09:32;;;;;;;1.85;0.95;;;13.10;99.90;;;;;;5032766;28;20386;-73
2021/12/04 00:12:02;;;;;;;1.73;1.10;;;13.10;99.90;;;;;;5033001;28;20026;-73
2021/12/04 00:14:29;;;;;;;1.60;1.05;;;13.10;99.90;;;;;;5015880;28;20022;-73
2021/12/04 00:16:56;;;;;;;3.42;1.33;;;13.20;99.90;;;;;;5034578;28;20065;-74
2021/12/04 00:19:22;;;;;;;1.60;0.90;;;13.20;99.90;;;;;;5036106;28;20061;-73
2021/12/04 00:21:48;;;;;;;2.92;1.42;;;13.20;99.90;;;;;;5036569;28;20108;-74
2021/12/04 00:24:14;;;;;;;2.15;1.35;;;13.20;99.90;;;;;;5036432;28;20096;-73
2021/12/04 00:26:40;;;;;;;2.33;0.90;;;13.20;99.90;;;;;;5036242;28;20079;-74
2021/12/04 00:29:05;;;;;;;1.63;1.00;;;13.20;99.90;;;;;;5036416;28;20026;-73
2021/12/04 00:31:32;;;;;;;1.75;0.90;;;13.20;99.90;;;;;;5036095;28;20025;-73
2021/12/04 00:33:58;;;;;;;2.90;1.48;;;13.20;99.90;;;;;;5036377;28;20049;-73
2021/12/04 00:49:59;;;;;;;2.92;0.90;;;13.20;99.90;;;;;;5035811;28;20512;-73
2021/12/04 00:52:25;;;;;;;1.50;0.70;;;13.20;99.90;;;;;;5035980;28;20025;-74
2021/12/04 00:54:50;;;;;;;1.60;0.65;;;13.20;99.90;;;;;;5035665;28;20100;-74
2021/12/04 00:57:16;;;;;;;2.53;1.05;;;13.20;99.90;;;;;;5035620;28;20021;-73
2021/12/04 00:59:42;;;;;;;1.20;0.57;;;13.20;99.90;;;;;;5035616;28;20025;-73
2021/12/04 01:02:08;;;;;;;2.85;0.90;;;13.20;99.90;;;;;;5035819;28;20033;-73
2021/12/04 01:04:33;;;;;;;0.85;0.70;;;13.20;99.90;;;;;;5035965;28;20026;-73
2021/12/04 01:06:59;;;;;;;0.70;0.50;;;13.20;99.90;;;;;;5017649;28;20033;-72
2021/12/04 01:09:26;;;;;;;1.42;0.50;;;13.20;99.90;;;;;;5035676;28;20021;-73
2021/12/04 01:11:52;;;;;;;1.05;0.60;;;13.20;99.90;;;;;;5035362;28;20030;-73
2021/12/04 01:14:26;;;;;;;1.45;0.60;;;13.20;99.90;;;;;;5035894;28;20080;-73
2021/12/04 01:16:52;;;;;;;1.23;0.50;;;13.20;99.90;;;;;;5035370;28;20034;-74
2021/12/04 01:19:19;;;;;;;1.67;0.50;;;13.20;99.90;;;;;;5035132;28;20046;-73
2021/12/04 01:21:46;;;;;;;2.35;0.77;;;13.20;99.90;;;;;;5035457;28;20021;-73
2021/12/04 01:24:12;;;;;;;0.75;0.43;;;13.20;99.90;;;;;;5017295;28;20444;-73
2021/12/04 01:26:39;;;;;;;1.17;0.60;;;13.20;99.90;;;;;;5035338;28;20021;-73
2021/12/04 01:29:05;;;;;;;0.95;0.60;;;13.20;99.90;;;;;;5034955;28;20060;-73
2021/12/04 01:31:31;;;;;;;1.33;0.70;;;13.20;99.90;;;;;;5035041;28;20104;-72
2021/12/04 01:33:57;;;;;;;3.28;0.43;;;13.20;99.90;;;;;;5034980;28;20576;-74
2021/12/04 01:36:24;;;;;;;1.15;0.65;;;13.20;99.90;;;;;;5035202;28;20036;-73
2021/12/04 01:38:50;;;;;;;0.88;0.60;;;13.20;99.90;;;;;;5035452;28;20029;-73
2021/12/04 01:41:16;;;;;;;0.75;0.40;;;13.10;99.90;;;;;;5034843;28;20025;-74
2021/12/04 01:43:41;;;;;;;0.50;0.50;;;13.20;99.90;;;;;;5034867;28;20032;-73
2021/12/04 01:46:07;;;;;;;0.98;0.60;;;13.20;99.90;;;;;;5035021;28;20390;-73
2021/12/04 01:48:33;;;;;;;0.73;0.70;;;13.20;99.90;;;;;;5034938;28;20026;-72
2021/12/04 01:50:59;;;;;;;0.63;0.55;;;13.20;99.90;;;;;;5034619;28;20370;-73
2021/12/04 01:53:26;;;;;;;1.45;0.57;;;13.20;99.90;;;;;;5034549;28;20033;-73
2021/12/04 01:55:53;;;;;;;1.77;0.73;;;13.20;99.90;;;;;;5034501;28;20112;-73
2021/12/04 01:58:20;;;;;;;1.58;0.50;;;13.10;99.90;;;;;;5034471;28;20017;-73
2021/12/04 02:00:46;;;;;;;2.03;0.80;;;13.20;99.90;;;;;;5034698;28;20025;-74
2021/12/04 02:03:13;;;;;;;1.10;0.55;;;13.20;99.90;;;;;;5034604;28;20029;-74
2021/12/04 02:05:41;;;;;;;2.15;1.00;;;13.20;99.90;;;;;;5034403;28;20033;-73
2021/12/04 02:08:08;;;;;;;2.00;0.55;;;13.20;99.90;;;;;;5034304;28;20018;-73
2021/12/04 02:10:35;;;;;;;2.05;0.50;;;13.20;99.90;;;;;;5034201;28;20057;-73
2021/12/04 02:13:01;;;;;;;1.65;0.47;;;13.20;99.90;;;;;;5034441;28;20021;-73
2021/12/04 02:15:27;;;;;;;1.58;0.50;;;13.20;99.90;;;;;;5034428;28;20025;-74
2021/12/04 02:17:53;;;;;;;1.50;1.00;;;13.20;99.90;;;;;;5033842;28;20029;-73
2021/12/04 02:20:21;;;;;;;1.30;0.90;;;13.20;99.90;;;;;;5016091;28;20080;-73
2021/12/04 02:22:48;;;;;;;1.55;0.60;;;13.20;99.90;;;;;;5034264;28;20025;-72
2021/12/04 02:25:15;;;;;;;0.95;0.70;;;13.20;99.90;;;;;;5033988;28;20080;-73
2021/12/04 02:27:44;;;;;;;2.75;0.68;;;13.20;99.90;;;;;;5033903;28;20529;-73
2021/12/04 02:30:13;;;;;;;1.33;0.80;;;13.20;99.90;;;;;;5033914;28;20473;-73
2021/12/04 02:32:39;;;;;;;0.95;0.60;;;13.20;99.90;;;;;;5034147;28;20021;-73
2021/12/04 02:35:07;;;;;;;1.92;0.60;;;13.20;99.90;;;;;;5034340;28;20020;-73
2021/12/04 02:37:34;;;;;;;0.98;0.80;;;13.20;99.90;;;;;;5016097;28;20021;-73
2021/12/04 02:40:00;;;;;;;1.77;0.73;;;13.20;99.90;;;;;;5033226;28;20417;-74
2021/12/04 02:42:30;;;;;;;3.25;0.85;;;13.20;99.90;;;;;;5033773;28;20029;-73
2021/12/04 02:45:01;;;;;;;1.67;0.83;;;13.10;99.90;;;;;;5033604;28;20515;-74
2021/12/04 02:47:28;;;;;;;0.68;0.65;;;13.10;99.90;;;;;;5033931;28;20017;-73
2021/12/04 02:49:54;;;;;;;1.50;0.80;;;13.10;99.90;;;;;;5033543;28;20022;-73
2021/12/04 02:52:21;;;;;;;0.60;0.60;;;13.10;99.90;;;;;;5033539;28;20140;-73
2021/12/04 02:54:48;;;;;;;2.65;1.00;;;13.00;99.90;;;;;;5033532;28;20025;-73
2021/12/04 02:57:16;;;;;;;1.70;1.00;;;13.00;99.90;;;;;;5033666;28;20033;-74
2021/12/04 02:59:43;;;;;;;1.08;0.95;;;13.00;99.90;;;;;;5033435;28;20104;-74
2021/12/04 03:02:17;;;;;;;2.33;1.10;;;13.00;99.90;;;;;;5015646;28;20098;-74
2021/12/04 03:04:45;;;;;;;1.38;1.13;;;13.00;99.90;;;;;;5033601;28;20156;-73
2021/12/04 03:07:10;;;;;;;2.10;0.90;;;13.00;99.90;;;;;;5015588;28;20033;-73
2021/12/04 03:09:36;;;;;;;2.60;1.10;;;12.90;99.90;;;;;;5033306;28;20017;-73
2021/12/04 03:12:04;;;;;;;2.67;1.10;;;12.90;99.90;;;;;;5033252;28;20072;-73
2021/12/04 03:14:29;;;;;;;1.98;1.30;;;13.00;99.90;;;;;;5015428;28;20040;-73
2021/12/04 03:16:56;;;;;;;1.70;1.00;;;13.00;99.90;;;;;;5033464;28;20108;-73
2021/12/04 03:19:22;;;;;;;1.95;0.90;;;13.00;99.90;;;;;;5032976;28;20413;-73
2021/12/04 03:21:48;;;;;;;0.55;0.50;;;13.00;99.90;;;;;;5033189;28;20036;-73
2021/12/04 03:24:16;;;;;;;3.47;0.57;;;13.00;99.90;;;;;;5033091;28;20075;-72
2021/12/04 03:26:42;;;;;;;3.30;0.57;;;13.00;99.90;;;;;;5033439;28;20053;-73
2021/12/04 03:29:12;;;;;;;3.13;0.68;;;13.00;99.90;;;;;;5033114;28;20432;-73
2021/12/04 03:42:21;;;;;;;1.55;0.70;;;13.00;99.90;;;;;;5033468;28;20106;-73
2021/12/04 03:44:47;;;;;;;2.85;1.10;;;13.00;99.90;;;;;;5032869;28;20029;-73
2021/12/04 03:47:13;;;;;;;4.75;1.80;;;12.90;99.90;;;;;;5032941;28;20022;-74
2021/12/04 03:49:39;;;;;;;2.47;1.60;;;13.00;99.90;;;;;;5032926;28;20028;-73
2021/12/04 03:52:06;;;;;;;3.83;1.50;;;12.90;99.90;;;;;;5035149;28;20026;-73
2021/12/04 03:54:31;;;;;;;4.28;1.52;;;13.00;99.90;;;;;;5037301;28;20064;-74
2021/12/04 03:57:04;;;;;;;2.33;1.75;;;13.00;99.90;;;;;;5037052;28;20033;-73
2021/12/04 03:59:31;;;;;;;2.30;1.75;;;13.00;99.90;;;;;;5037047;28;20036;-73
2021/12/04 04:01:57;;;;;;;2.15;1.73;;;12.90;99.90;;;;;;5036635;28;20029;-74
2021/12/04 04:04:22;;;;;;;6.15;1.80;;;13.00;99.90;;;;;;5036555;28;20036;-73
2021/12/04 04:06:48;;;;;;;2.90;1.65;;;12.90;99.90;;;;;;5036578;28;20520;-73
2021/12/04 04:09:14;;;;;;;5.72;1.30;;;12.90;99.90;;;;;;5036538;28;20027;-73
2021/12/04 04:11:40;;;;;;;5.32;1.17;;;12.90;99.90;;;;;;5036519;28;20096;-74
2021/12/04 04:14:05;;;;;;;6.93;1.80;;;12.80;99.90;;;;;;5036445;28;20117;-73
2021/12/04 04:16:35;;;;;;;4.45;1.55;;;12.90;99.90;;;;;;5036956;28;20075;-73
2021/12/04 04:19:00;;;;;;;7.57;1.90;;;12.80;99.90;;;;;;5036207;28;20052;-73
2021/12/04 04:21:26;;;;;;;8.60;2.17;;;12.80;99.90;;;;;;5036593;28;20033;-73
2021/12/04 04:23:52;;;;;;;6.82;1.42;;;12.70;99.90;;;;;;5036196;28;20043;-73
2021/12/04 04:26:18;;;;;;;5.50;1.35;;;12.70;99.90;;;;;;5036217;28;20032;-73
2021/12/04 04:28:43;;;;;;;4.25;1.73;;;12.70;99.90;;;;;;5036161;28;20067;-73
2021/12/04 04:31:10;;;;;;;3.80;0.95;;;12.70;99.90;;;;;;5036703;28;20021;-73
2021/12/04 04:33:40;;;;;;;1.95;0.60;;;12.60;99.90;;;;;;5036089;28;20029;-74
2021/12/04 04:36:33;;;;;;;2.22;0.60;;;12.50;99.90;;;;;;5036347;28;20123;-73
2021/12/04 05:13:39;;;;;;;6.97;0.77;;;12.00;99.90;;;;;;5035379;28;20033;-73
2021/12/04 05:18:40;;;;;;;4.55;1.10;;;11.90;99.90;;;;;;5035437;28;20053;-74
2021/12/04 05:21:08;;;;;;;8.45;1.27;;;11.90;99.90;;;;;;5035235;28;20426;-73
2021/12/04 05:23:41;;;;;;;7.10;1.30;;;11.80;99.90;;;;;;5035130;28;20473;-73
2021/12/04 05:26:15;;;;;;;8.57;1.48;;;11.80;99.90;;;;;;5035692;28;20492;-74
2021/12/04 05:28:41;;;;;;;5.50;1.10;;;11.70;99.90;;;;;;5035456;28;20099;-73
2021/12/04 05:31:07;;;;;;;7.28;1.60;;;11.70;99.90;;;;;;5035046;28;20022;-73
2021/12/04 05:33:33;;;;;;;5.78;1.77;;;11.60;99.90;;;;;;5035291;28;20021;-73
2021/12/04 05:35:59;;;;;;;6.55;1.55;;;11.50;99.90;;;;;;5034941;28;20037;-73
2021/12/04 05:38:25;;;;;;;9.73;2.25;;;11.50;99.90;;;;;;5034924;28;20022;-73
2021/12/04 05:40:51;;;;;;;4.30;1.30;;;11.50;99.90;;;;;;5034889;28;20079;-73
2021/12/04 05:43:21;;;;;;;5.30;1.77;;;11.50;99.90;;;;;;5034644;28;20024;-73
2021/12/04 05:45:52;;;;;;;;;;;11.40;99.90;;;;;;5035839;28;20105;-73
2021/12/04 05:56:16;;;;;;;7.80;1.42;;;11.30;99.90;;;;;;5035093;28;20091;-73
2021/12/04 05:58:42;;;;;;;6.05;1.60;;;11.40;99.90;;;;;;5034485;28;20057;-74
2021/12/04 06:01:09;;;;;;;6.93;1.63;;;11.40;99.90;;;;;;5034486;28;20032;-74
2021/12/04 06:03:35;;;;;;;10.38;2.25;;;11.30;99.90;;;;;;5034369;28;20432;-74
2021/12/04 06:06:02;;;;;;;3.95;1.10;;;11.30;99.90;;;;;;5034375;28;20382;-72
2021/12/04 06:08:28;;;;;;;9.05;1.75;;;11.30;99.90;;;;;;5034301;28;20021;-74
2021/12/04 06:10:55;;;;;;;6.50;1.75;;;11.30;99.90;;;;;;5034285;28;20026;-73
2021/12/04 06:13:21;;;;;;;9.35;1.70;;;11.20;99.90;;;;;;5034265;28;20040;-74
2021/12/04 06:15:47;;;;;;;6.82;1.95;;;11.20;99.90;;;;;;5015918;28;20030;-73
2021/12/04 06:18:15;;;;;;;7.25;1.90;;;11.20;99.90;;;;;;5023068;28;20056;-73
2021/12/04 06:23:25;;;;;;;6.72;1.70;;;11.10;99.90;;;;;;5053693;28;20116;-73
2021/12/04 06:25:51;;;;;;;8.07;1.45;;;11.10;99.90;;;;;;5054255;28;20100;-73
2021/12/04 06:28:17;;;;;;;11.88;2.33;;;11.10;99.90;;;;;;5053877;28;20385;-73
2021/12/04 06:30:43;;;;;;;8.48;2.08;;;11.10;99.90;;;;;;5053843;28;20393;-73
2021/12/04 06:33:11;;;;;;;7.43;1.75;;;11.10;99.90;;;;;;5054097;28;20025;-73
2021/12/04 06:35:41;;;;;;;7.47;2.17;;;11.10;99.90;;;;;;5053739;28;20029;-72
2021/12/04 06:38:12;;;;;;;9.60;1.80;;;11.10;99.90;;;;;;5054058;28;20025;-73
2021/12/04 06:40:38;;;;;;;9.95;2.53;;;11.10;99.90;;;;;;5053968;28;20067;-73
2021/12/04 06:43:05;;;;;;;5.78;1.77;;;11.10;99.90;;;;;;5053479;28;20025;-73
2021/12/04 06:45:33;;;;;;;6.88;1.52;;;11.10;99.90;;;;;;5053609;28;20082;-73
2021/12/04 06:48:07;;;;;;;6.85;1.60;;;11.00;99.90;;;;;;5053573;28;20036;-73
2021/12/04 06:55:52;;;;;;;11.48;1.80;;;11.00;99.90;;;;;;5053209;28;20094;-73
2021/12/04 06:58:18;;;;;;;6.10;2.47;;;11.00;99.90;;;;;;5053414;28;20473;-73
2021/12/04 07:00:45;;;;;;;10.73;1.75;;;11.00;99.90;;;;;;5053420;28;20033;-74
2021/12/04 07:03:10;;;;;;;11.27;2.33;;;11.00;99.90;;;;;;5053330;28;20068;-72
2021/12/04 07:05:36;;;;;;;11.82;1.95;;;10.90;99.90;;;;;;5053352;28;20053;-73
2021/12/04 07:08:05;;;;;;;9.32;1.95;;;10.90;99.90;;;;;;5053295;28;20032;-73
2021/12/04 07:10:32;;;;;;;9.38;1.88;;;10.80;99.90;;;;;;5053841;28;20017;-72
2021/12/04 07:12:58;;;;;;;7.38;1.70;;;10.80;99.90;;;;;;5053260;28;20021;-74
2021/12/04 07:15:27;;;;;;;9.82;2.38;;;10.80;99.90;;;;;;5053145;28;20029;-73
2021/12/04 07:17:52;;;;;;;12.80;2.38;;;10.80;99.90;;;;;;5050590;28;20405;-73
2021/12/04 07:20:18;;;;;;;8.02;2.08;;;10.70;99.90;;;;;;5033289;28;20029;-73
2021/12/04 07:22:44;;;;;;;9.20;2.33;;;10.70;99.90;;;;;;5033112;28;20025;-73
2021/12/04 07:25:10;;;;;;;10.35;1.98;;;10.70;99.90;;;;;;5034264;28;20025;-73
2021/12/04 07:27:35;;;;;;;5.80;1.42;;;10.70;99.90;;;;;;5039792;28;20524;-73
2021/12/04 07:30:01;;;;;;;10.82;2.15;;;10.70;99.90;;;;;;5039758;28;20032;-73
2021/12/04 07:32:27;;;;;;;9.68;1.65;;;10.70;99.90;;;;;;5039740;28;20010;-73
2021/12/04 07:34:53;;;;;;;10.75;2.63;;;10.60;99.90;;;;;;5039678;28;20029;-73
2021/12/04 07:37:20;;;;;;;11.05;2.10;;;10.60;99.90;;;;;;5039671;28;20025;-73
2021/12/04 07:39:46;;;;;;;9.75;2.42;;;10.70;99.90;;;;;;5040151;28;20116;-73
2021/12/04 07:42:11;;;;;;;10.30;2.40;;;10.70;99.90;;;;;;5039829;28;20453;-73
2021/12/04 07:44:37;;;;;;;9.88;2.17;;;10.70;99.90;;;;;;5039812;28;20502;-73
2021/12/04 07:47:03;;;;;;;6.47;2.10;;;10.70;99.90;;;;;;5040114;28;20369;-72
2021/12/04 07:49:28;;;;;;;10.23;2.28;;;10.70;99.90;;;;;;5039558;28;20481;-72
2021/12/04 07:51:54;;;;;;;8.05;2.83;;;10.70;99.90;;;;;;5039502;28;20017;-74
2021/12/04 07:54:20;;;;;;;9.23;2.10;;;10.70;99.90;;;;;;5039754;28;20081;-73
2021/12/04 07:56:45;;;;;;;9.23;2.00;;;10.80;99.90;;;;;;5039429;28;20025;-73
2021/12/04 07:59:11;;;;;;;9.90;2.45;;;10.80;99.90;;;;;;5039417;28;20026;-73
2021/12/04 08:01:37;;;;;;;8.13;1.92;;;10.80;99.90;;;;;;5039430;28;20021;-73
2021/12/04 08:04:04;;;;;;;5.50;1.50;;;10.90;99.90;;;;;;5021586;28;20025;-73
2021/12/04 08:06:33;;;;;;;8.82;2.17;;;10.90;99.90;;;;;;5022421;28;20351;-73
2021/12/04 08:08:59;;;;;;;6.43;1.45;;;10.90;99.90;;;;;;5039607;28;20024;-73
2021/12/04 08:11:28;;;;;;;5.93;1.52;;;10.90;99.90;;;;;;5039887;28;20018;-73
2021/12/04 08:13:54;;;;;;;11.40;2.22;;;10.90;99.90;;;;;;5039852;28;20470;-74
2021/12/04 08:16:24;;;;;;;7.57;1.92;;;10.90;99.90;;;;;;5039310;28;20417;-74
2021/12/04 08:18:53;;;;;;;5.53;1.35;;;10.90;99.90;;;;;;5039138;28;20107;-73
2021/12/04 08:21:21;;;;;;;6.80;1.80;;;10.90;99.90;;;;;;5039225;28;20030;-73
2021/12/04 08:23:47;;;;;;;8.30;1.83;;;10.90;99.90;;;;;;5039147;28;20028;-73
2021/12/04 08:26:13;;;;;;;8.15;1.65;;;11.00;99.90;;;;;;5039461;28;20018;-73
2021/12/04 08:28:39;;;;;;;11.13;1.95;;;11.00;99.90;;;;;;5039762;28;20064;-73
2021/12/04 08:31:05;;;;;;;13.15;2.45;;;11.00;99.90;;;;;;5039161;28;20127;-74
2021/12/04 08:33:31;;;;;;;9.73;2.03;;;11.10;99.90;;;;;;5039662;28;20029;-72
2021/12/04 08:35:56;;;;;;;6.85;2.00;;;11.10;99.90;;;;;;5039359;28;20026;-73
2021/12/04 08:38:22;;;;;;;6.38;1.88;;;11.00;99.90;;;;;;5035614;28;20035;-73
2021/12/04 08:40:49;;;;;;;8.70;1.92;;;11.00;99.90;;;;;;5035971;28;20025;-73
2021/12/04 08:43:15;;;;;;;11.70;2.15;;;11.00;99.90;;;;;;5036087;28;20422;-74
2021/12/04 08:45:42;;;;;;;8.98;1.95;;;10.90;99.90;;;;;;5035875;28;20021;-73
2021/12/04 08:48:08;;;;;;;9.70;1.80;;;10.90;99.90;;;;;;5036114;28;20101;-73
2021/12/04 08:50:35;;;;;;;3.97;1.13;;;10.80;99.90;;;;;;5036049;28;20020;-74
2021/12/04 08:53:03;;;;;;;5.00;1.90;;;10.60;99.90;;;;;;5035726;28;20052;-74
2021/12/04 08:55:30;;;;;;;6.95;1.38;;;10.40;99.90;;;;;;5035708;28;20486;-74
2021/12/04 08:57:56;;;;;;;6.10;1.80;;;10.30;99.90;;;;;;5035903;28;20079;-73
2021/12/04 09:00:25;;;;;;;4.07;1.35;;;10.30;99.90;;;;;;5035603;28;20025;-73
2021/12/04 09:02:52;;;;;;;5.45;1.42;;;10.20;99.90;;;;;;5035491;28;20029;-73
2021/12/04 09:05:19;;;;;;;4.80;1.60;;;10.20;99.90;;;;;;5035582;28;20546;-73
2021/12/04 09:07:45;;;;;;;4.00;1.50;;;10.20;99.90;;;;;;5035453;28;20021;-73
2021/12/04 09:10:13;;;;;;;7.13;1.50;;;10.00;99.90;;;;;;5035727;28;20394;-84
2021/12/04 09:12:39;;;;;;;5.22;1.30;;;9.90;99.90;;;;;;5035584;28;20029;-74
2021/12/04 09:15:08;;;;;;;3.00;0.98;;;9.80;99.90;;;;;;5035606;28;20083;-74
2021/12/04 09:17:34;;;;;;;5.43;1.10;;;9.50;99.90;;;;;;5035321;28;20067;-74
2021/12/04 09:20:00;;;;;;;3.35;1.10;;;9.40;99.90;;;;;;5035098;28;20136;-75
2021/12/04 09:22:30;;;;;;;4.50;0.98;;;9.40;99.90;;;;;;5035228;28;20490;-73
2021/12/04 09:24:59;;;;;;;2.58;1.10;;;9.40;99.90;;;;;;5035145;28;20028;-73
2021/12/04 09:27:43;;;;;;;1.67;1.00;;;9.40;99.90;;;;;;5035124;28;20029;-74
2021/12/04 10:00:21;;;;;;;3.40;1.20;;;9.80;99.90;;;;;;5034703;28;20140;-76
2021/12/04 10:19:13;;;;;;;4.45;1.13;;;9.50;99.90;;;;;;5034025;28;20426;-74
2021/12/04 10:21:48;;;;;;;5.57;1.23;;;9.50;99.90;;;;;;5016299;28;20375;-73
2021/12/04 10:32:44;;;;;;;3.80;1.05;;;9.80;99.90;;;;;;5033667;28;20445;-72
2021/12/04 10:35:20;;;;;;;2.97;0.77;;;9.80;99.90;;;;;;5034096;28;20552;-76
2021/12/04 10:38:00;;;;;;;4.35;1.35;;;9.90;99.90;;;;;;5033852;28;20398;-75
2021/12/04 10:40:44;;;;;;;2.97;0.82;;;9.80;99.90;;;;;;5034088;28;20383;-77
2021/12/04 10:43:15;;;;;;;2.90;0.90;;;9.80;99.90;;;;;;5034011;28;20041;-77
2021/12/04 10:45:45;;;;;;;1.73;1.00;;;9.80;99.90;;;;;;5034183;28;20023;-75
2021/12/04 10:48:17;;;;;;;5.65;0.73;;;9.70;99.90;;;;;;5034288;28;20060;-76
2021/12/04 10:50:48;;;;;;;3.60;0.88;;;9.60;99.90;;;;;;5033960;28;20026;-82
2021/12/04 10:53:23;;;;;;;2.60;0.60;;;9.60;99.90;;;;;;5033632;28;20397;-74
2021/12/04 11:06:45;;;;;;;2.72;0.82;;;10.10;99.90;;;;;;5033477;28;20393;-74
2021/12/04 11:29:03;;;;;;;1.88;0.80;;;10.20;99.90;;;;;;5032446;28;20593;-73
2021/12/04 11:42:53;;;;;;;2.78;0.80;;;9.90;99.90;;;;;;5020736;28;20504;-73
2021/12/04 11:45:28;;;;;;;4.95;1.35;;;10.00;99.90;;;;;;5015069;28;20386;-72
2021/12/04 11:48:01;;;;;;;8.45;1.40;;;10.00;99.90;;;;;;5033291;28;20481;-74
2021/12/04 11:50:33;;;;;;;6.82;1.70;;;10.00;99.90;;;;;;5033022;28;20041;-73
2021/12/04 11:53:12;;;;;;;5.13;1.40;;;10.00;99.90;;;;;;5033733;28;20034;-74
2021/12/04 11:55:41;;;;;;;5.15;1.30;;;10.00;99.90;;;;;;5033235;28;20045;-74
2021/12/04 11:58:22;;;;;;;7.97;2.90;;;10.10;99.90;;;;;;5032921;28;20036;-74
2021/12/04 12:00:51;;;;;;;4.75;1.80;;;10.10;99.90;;;;;;5033033;28;20041;-73
2021/12/04 12:03:20;;;;;;;7.13;2.17;;;10.20;99.90;;;;;;5032792;28;20021;-72
2021/12/04 12:05:53;;;;;;;5.80;2.22;;;10.20;99.90;;;;;;5033108;28;20028;-73
2021/12/04 12:08:34;;;;;;;5.30;1.27;;;10.30;99.90;;;;;;5032734;28;20022;-73
2021/12/04 12:11:27;;;;;;;8.52;1.80;;;10.30;99.90;;;;;;5033120;28;20032;-73
2021/12/04 12:14:00;;;;;;;3.30;1.65;;;10.30;99.90;;;;;;5036270;28;20026;-72
2021/12/04 12:16:35;;;;;;;10.75;2.35;;;10.30;99.90;;;;;;5036563;28;20049;-73
2021/12/04 12:19:08;;;;;;;6.13;2.05;;;10.40;99.90;;;;;;5038620;28;20057;-73
2021/12/04 12:33:06;;;;;;;6.10;1.63;;;10.40;99.90;;;;;;5056229;28;20032;-74
2021/12/04 12:38:32;;;;;;;7.47;1.80;;;10.40;99.90;;;;;;5056347;28;20035;-73
2021/12/04 12:41:12;;;;;;;7.03;1.97;;;10.40;99.90;;;;;;5056638;28;20078;-73
2021/12/04 12:44:05;;;;;;;7.28;1.95;;;10.40;99.90;;;;;;5056021;28;20366;-73
2021/12/04 12:46:33;;;;;;;8.80;1.75;;;10.50;99.90;;;;;;5056275;28;20025;-73
2021/12/04 12:48:59;;;;;;;10.82;2.03;;;10.50;99.90;;;;;;5055851;28;20020;-72
2021/12/04 12:51:31;;;;;;;5.68;1.63;;;10.50;99.90;;;;;;5055844;28;20033;-73
2021/12/04 12:54:00;;;;;;;9.50;1.65;;;10.50;99.90;;;;;;5056133;28;20032;-72
2021/12/04 12:56:30;;;;;;;7.78;1.90;;;10.60;99.90;;;;;;5055763;28;20029;-73
2021/12/04 12:59:06;;;;;;;6.20;1.70;;;10.60;99.90;;;;;;5055652;28;20025;-73
2021/12/04 13:13:38;;;;;;;8.35;2.05;;;10.60;99.90;;;;;;5055399;28;20043;-72
2021/12/04 13:16:17;;;;;;;8.48;1.55;;;10.70;99.90;;;;;;5055682;28;20531;-74
2021/12/04 13:18:51;;;;;;;7.13;1.40;;;10.70;99.90;;;;;;5046126;28;20077;-73
2021/12/04 13:21:17;;;;;;;8.45;1.42;;;10.60;99.90;;;;;;5035533;28;20041;-73
2021/12/04 13:23:49;;;;;;;7.97;1.63;;;10.60;99.90;;;;;;5034919;28;20038;-72
2021/12/04 13:26:15;;;;;;;4.97;1.55;;;10.60;99.90;;;;;;5035562;28;20022;-73
2021/12/04 13:28:45;;;;;;;7.72;1.85;;;10.70;99.90;;;;;;5035500;28;20017;-72
2021/12/04 13:31:10;;;;;;;5.72;1.60;;;10.70;99.90;;;;;;5035157;28;20026;-72
2021/12/04 13:33:38;;;;;;;8.40;1.92;;;10.80;99.90;;;;;;5035112;28;20508;-74
2021/12/04 13:36:27;;;;;;;7.47;1.60;;;10.80;99.90;;;;;;5035017;28;20045;-73
2021/12/04 13:39:01;;;;;;;10.32;1.98;;;10.80;99.90;;;;;;5016953;28;20405;-72
2021/12/04 13:41:28;;;;;;;7.40;2.20;;;10.70;99.90;;;;;;5035316;28;20108;-73
2021/12/04 13:43:56;;;;;;;1.33;0.68;;;10.60;99.90;;;;;;5034736;28;20033;-72
2021/12/04 13:46:24;;;;;;;4.10;1.00;;;10.30;99.90;;;;;;5034832;28;20032;-74
2021/12/04 13:48:50;;;;;;;7.70;1.23;;;9.90;99.90;;;;;;5034795;28;20030;-73
2021/12/04 13:51:15;;;;;;;3.58;0.40;;;9.50;99.90;;;;;;5034757;28;20024;-73
2021/12/04 13:53:45;;;;;;;8.07;1.33;;;9.20;99.90;;;;;;5034701;28;20104;-73
2021/12/04 13:56:14;;;;;;;6.35;1.20;;;8.80;99.90;;;;;;5034644;28;20025;-73
2021/12/04 13:58:56;;;;;;;2.47;0.70;;;8.60;99.90;;;;;;5034600;28;20033;-72
2021/12/04 14:01:24;;;;;;;3.50;0.93;;;8.70;99.90;;;;;;5034898;28;20056;-73
2021/12/04 14:03:55;;;;;;;8.15;2.20;;;8.70;99.90;;;;;;5034424;28;20022;-72
2021/12/04 14:06:20;;;;;;;7.63;2.30;;;8.70;99.90;;;;;;5034737;28;20470;-73
2021/12/04 14:09:07;;;;;;;6.80;3.50;;;8.70;99.90;;;;;;5034417;28;20032;-72
2021/12/04 14:11:35;;;;;;;5.32;1.90;;;8.80;99.90;;;;;;5034648;28;20048;-73
2021/12/04 14:14:22;;;;;;;7.78;2.75;;;8.70;99.90;;;;;;5034316;28;20100;-73
2021/12/04 14:16:51;;;;;;;9.77;4.50;;;8.70;99.90;;;;;;5034247;28;20025;-73
2021/12/04 14:19:24;;;;;;;8.82;3.17;;;8.70;99.90;;;;;;5033954;28;20045;-73
2021/12/04 14:22:03;;;;;;;10.23;4.10;;;8.80;99.90;;;;;;5034484;28;20065;-73
2021/12/04 14:24:41;;;;;;;4.88;2.40;;;8.90;99.90;;;;;;5033977;28;20405;-73
2021/12/04 14:27:09;;;;;;;6.68;3.40;;;9.00;99.90;;;;;;5034100;28;20024;-73
2021/12/04 14:29:38;;;;;;;7.15;3.90;;;9.10;99.90;;;;;;5034001;28;20032;-72
2021/12/04 14:32:05;;;;;;;3.53;1.90;;;9.30;99.90;;;;;;5034258;28;20056;-73
2021/12/04 14:34:31;;;;;;;6.22;1.95;;;9.30;99.90;;;;;;5033958;28;20017;-73
2021/12/04 14:37:03;;;;;;;4.70;2.65;;;9.30;99.90;;;;;;5033589;28;20040;-72
2021/12/04 14:39:30;;;;;;;6.97;2.67;;;9.40;99.90;;;;;;5034434;28;20030;-72
2021/12/04 14:41:56;;;;;;;4.03;1.60;;;9.40;99.90;;;;;;5033995;28;20052;-73
2021/12/04 14:44:22;;;;;;;6.45;2.00;;;9.40;99.90;;;;;;5033734;28;20041;-72
2021/12/04 14:46:49;;;;;;;9.07;2.08;;;9.40;99.90;;;;;;5034034;28;20022;-73
2021/12/04 14:49:15;;;;;;;4.30;2.58;;;9.40;99.90;;;;;;5033674;28;20104;-72
2021/12/04 14:51:41;;;;;;;5.72;2.40;;;9.40;99.90;;;;;;5033678;28;20097;-73
2021/12/04 14:54:08;;;;;;;7.88;2.60;;;9.50;99.90;;;;;;5033630;28;20052;-73
2021/12/04 14:56:34;;;;;;;5.47;2.22;;;9.50;99.90;;;;;;5034121;28;20026;-72
2021/12/04 14:59:00;;;;;;;9.43;2.35;;;9.50;99.90;;;;;;5033584;28;20036;-72
2021/12/04 15:01:33;;;;;;;5.78;2.22;;;9.50;99.90;;;;;;5033518;28;20022;-73
2021/12/04 15:04:02;;;;;;;5.00;2.00;;;9.50;99.90;;;;;;5034555;28;20464;-73
2021/12/04 15:06:32;;;;;;;7.28;3.05;;;9.40;99.90;;;;;;5033488;28;20034;-73
2021/12/04 15:09:14;;;;;;;8.10;2.90;;;9.40;99.90;;;;;;5033443;28;20021;-73
2021/12/04 15:11:49;;;;;;;6.15;2.50;;;9.40;99.90;;;;;;5033417;28;20366;-73
2021/12/04 15:14:31;;;;;;;5.63;2.10;;;9.40;99.90;;;;;;5033576;28;20072;-72
2021/12/04 15:17:00;;;;;;;4.80;2.45;;;9.30;99.90;;;;;;5033629;28;20390;-73
2021/12/04 15:19:41;;;;;;;5.53;2.40;;;9.30;99.90;;;;;;5042278;28;20528;-73
2021/12/04 15:22:15;;;;;;;8.02;2.45;;;9.30;99.90;;;;;;5053802;28;20258;-72
2021/12/04 15:24:44;;;;;;;5.63;2.40;;;9.30;99.90;;;;;;5053423;28;20511;-72
2021/12/04 15:27:14;;;;;;;7.95;3.10;;;9.20;99.90;;;;;;5053413;28;20083;-73
2021/12/04 15:29:43;;;;;;;8.85;2.97;;;9.20;99.90;;;;;;5053150;28;20021;-73
2021/12/04 15:32:14;;;;;;;8.23;4.38;;;9.20;99.90;;;;;;5053099;28;20027;-74
2021/12/04 15:35:08;;;;;;;8.05;2.20;;;9.20;99.90;;;;;;5053104;28;20072;-73
2021/12/04 15:37:41;;;;;;;8.65;3.70;;;9.20;99.90;;;;;;5052413;28;20040;-73
2021/12/04 15:40:23;;;;;;;7.05;3.35;;;9.20;99.90;;;;;;5053064;28;20059;-73
2021/12/04 15:46:15;;;;;;;11.15;3.83;;;9.20;99.90;;;;;;4991764;28;20034;-73
2021/12/04 15:49:33;;;;;;;7.30;2.78;;;9.20;99.90;;;;;;4996239;28;20101;-74
2021/12/04 15:54:49;;;;;;;9.82;2.88;;;9.20;99.90;;;;;;5057218;28;20120;-72
2021/12/04 15:57:19;;;;;;;6.82;2.58;;;9.10;99.90;;;;;;5057129;28;20025;-72
2021/12/04 15:59:47;;;;;;;7.53;2.58;;;9.10;99.90;;;;;;5057125;28;20021;-73
2021/12/04 16:02:15;;;;;;;8.02;2.65;;;9.10;99.90;;;;;;5056725;28;20435;-73
2021/12/04 16:04:44;;;;;;;6.20;2.55;;;9.20;99.90;;;;;;5056698;28;20104;-73
2021/12/04 16:07:20;;;;;;;6.50;2.60;;;9.20;99.90;;;;;;5056698;28;20481;-72
2021/12/04 16:09:46;;;;;;;8.77;3.15;;;9.10;99.90;;;;;;5056653;28;20029;-72
2021/12/04 16:12:14;;;;;;;6.40;3.10;;;9.10;99.90;;;;;;5056503;28;20025;-72
2021/12/04 16:14:47;;;;;;;9.60;3.45;;;9.10;99.90;;;;;;5055240;28;20021;-73
2021/12/04 16:17:14;;;;;;;7.65;2.60;;;9.00;99.90;;;;;;5057006;28;20025;-72
2021/12/04 16:19:44;;;;;;;8.15;2.72;;;9.00;99.90;;;;;;5039010;28;20533;-72
2021/12/04 16:22:13;;;;;;;11.90;3.35;;;9.00;99.90;;;;;;5018463;28;20079;-73
2021/12/04 16:24:42;;;;;;;7.60;3.13;;;8.90;99.90;;;;;;5036335;28;20029;-72